Time;durP1;ratioP1;P1;durP2;ratioP2;P2;SDS_P1;SDS_P2;PMS_P1;PMS_P2;Temp;Humidity;BMP_temperature;BMP_pressure;BME280_temperature;BME280_humidity;BME280_pressure;Samples;Min_cycle;Max_cycle;Signal;HPM_P1;HPM_P2
2024/01/04 15:32:41;;;;;;;13.82;5.00;;;7.50;1.00;;;;;;5130720;27;20122;-54
2024/01/04 15:35:07;;;;;;;11.85;4.95;;;7.50;1.00;;;;;;5130266;28;20019;-54
2024/01/04 15:37:32;;;;;;;10.50;4.65;;;7.50;1.00;;;;;;5131033;28;20034;-55
2024/01/04 15:39:58;;;;;;;10.25;5.30;;;7.50;1.00;;;;;;5131460;28;20041;-52
2024/01/04 15:42:24;;;;;;;7.90;3.65;;;7.50;99.90;;;;;;5130287;28;20016;-53
2024/01/04 15:44:50;;;;;;;6.03;2.30;;;7.50;99.90;;;;;;5134047;28;20031;-54
2024/01/04 15:47:15;;;;;;;5.70;2.10;;;7.40;99.90;;;;;;5132391;28;20031;-52
2024/01/04 15:49:42;;;;;;;8.88;2.20;;;7.40;99.90;;;;;;5111791;28;20024;-53
2024/01/04 15:52:08;;;;;;;6.28;2.40;;;7.40;99.90;;;;;;5114709;28;20031;-52
2024/01/04 15:54:34;;;;;;;6.03;2.47;;;7.30;99.90;;;;;;5138795;28;20035;-53
2024/01/04 15:56:59;;;;;;;4.63;1.70;;;7.20;1.00;;;;;;5142532;28;20070;-54
2024/01/04 15:59:25;;;;;;;9.05;2.38;;;7.20;1.00;;;;;;5133563;28;20490;-53
2024/01/04 16:01:58;;;;;;;5.70;2.10;;;7.20;7.90;;;;;;5124932;28;20508;-53
2024/01/04 16:04:26;;;;;;;8.15;3.00;;;7.20;1.00;;;;;;5110540;27;20042;-54
2024/01/04 16:06:52;;;;;;;4.95;1.88;;;7.20;99.90;;;;;;5103564;28;20032;-54
2024/01/04 16:09:18;;;;;;;5.90;2.08;;;7.20;1.00;;;;;;5103725;28;20128;-54
2024/01/04 16:11:44;;;;;;;6.88;2.25;;;7.20;1.00;;;;;;5103639;28;20039;-53
2024/01/04 16:14:10;;;;;;;4.93;1.70;;;7.10;1.00;;;;;;5103284;27;20620;-53
2024/01/04 16:16:36;;;;;;;6.78;2.80;;;7.10;1.00;;;;;;5103142;27;20075;-54
2024/01/04 16:19:01;;;;;;;6.75;2.42;;;7.10;99.90;;;;;;5115150;28;20450;-56
2024/01/04 16:21:27;;;;;;;9.38;3.40;;;7.10;1.00;;;;;;5123410;28;20027;-54
2024/01/04 16:23:53;;;;;;;5.88;3.08;;;7.00;99.90;;;;;;5123529;28;20023;-53
2024/01/04 16:26:19;;;;;;;5.37;2.37;;;7.00;1.00;;;;;;5122247;28;20035;-54
2024/01/04 16:28:45;;;;;;;5.95;2.15;;;6.90;99.90;;;;;;5122087;28;20257;-54
2024/01/04 16:31:10;;;;;;;4.60;2.00;;;6.90;1.00;;;;;;5121868;28;20045;-57
2024/01/04 16:33:36;;;;;;;5.25;1.83;;;7.00;99.90;;;;;;5116220;27;20119;-53
2024/01/04 16:36:06;;;;;;;4.90;1.83;;;6.90;1.00;;;;;;5102743;28;20111;-52
2024/01/04 16:38:33;;;;;;;5.18;2.60;;;6.80;15.30;;;;;;5103030;28;20614;-54
2024/01/04 16:40:59;;;;;;;;;;;6.80;99.00;;;;;;5103360;28;20109;-52
2024/01/04 16:43:26;;;;;;;9.27;3.70;;;6.80;1.00;;;;;;5092443;28;19916;-52
2024/01/04 16:45:52;;;;;;;8.15;2.88;;;6.90;1.00;;;;;;5089478;28;20036;-53
2024/01/04 16:48:19;;;;;;;4.93;1.95;;;6.90;1.00;;;;;;5089312;28;20396;-53
2024/01/04 16:50:44;;;;;;;3.30;1.63;;;6.80;99.90;;;;;;5088330;28;20058;-52
2024/01/04 16:53:10;;;;;;;5.05;2.17;;;6.80;99.90;;;;;;5100228;28;20032;-52
2024/01/04 16:55:36;;;;;;;5.80;2.08;;;6.80;1.00;;;;;;5109285;28;20212;-54
2024/01/04 16:58:02;;;;;;;2.47;1.70;;;6.90;99.90;;;;;;5109665;28;20110;-54
2024/01/04 17:00:28;;;;;;;6.65;2.92;;;6.90;99.90;;;;;;5109791;28;20027;-54
2024/01/04 17:02:53;;;;;;;5.05;2.08;;;6.80;1.00;;;;;;5109805;28;20043;-52
2024/01/04 17:05:19;;;;;;;7.05;2.75;;;6.80;30.20;;;;;;5109223;28;20042;-53
2024/01/04 17:07:45;;;;;;;9.88;3.17;;;6.80;99.90;;;;;;5109197;28;20397;-55
2024/01/04 17:10:10;;;;;;;11.13;4.35;;;6.80;1.00;;;;;;5109347;28;20030;-53
2024/01/04 17:12:36;;;;;;;10.32;4.43;;;6.90;99.90;;;;;;5109533;28;20089;-53
2024/01/04 17:15:03;;;;;;;12.55;4.65;;;6.90;99.90;;;;;;5109401;28;20028;-53
2024/01/04 17:17:28;;;;;;;15.05;6.50;;;6.90;1.00;;;;;;5094389;28;20036;-53
2024/01/04 17:19:54;;;;;;;11.98;4.60;;;6.90;99.90;;;;;;5089029;28;20493;-53
2024/01/04 17:22:20;;;;;;;13.60;5.10;;;6.80;99.90;;;;;;5085665;28;20062;-53
2024/01/04 17:24:45;;;;;;;14.32;5.63;;;6.80;99.90;;;;;;5084757;27;20457;-54
2024/01/04 17:27:11;;;;;;;10.93;4.57;;;6.80;1.00;;;;;;5086304;28;20364;-53
2024/01/04 17:29:37;;;;;;;13.80;5.07;;;6.80;1.00;;;;;;5090693;28;20129;-55
2024/01/04 17:32:03;;;;;;;6.32;2.33;;;6.70;99.90;;;;;;5085495;28;20707;-53
2024/01/04 17:34:28;;;;;;;13.88;4.22;;;6.80;78.70;;;;;;5086225;28;20778;-54
2024/01/04 17:36:54;;;;;;;14.90;5.50;;;6.80;99.90;;;;;;5086339;28;20591;-51
2024/01/04 17:39:20;;;;;;;8.75;3.92;;;6.60;1.00;;;;;;5086019;28;20064;-52
2024/01/04 17:41:48;;;;;;;9.48;3.92;;;6.40;99.90;;;;;;5066074;28;20046;-51
2024/01/04 17:44:13;;;;;;;11.85;4.32;;;6.40;99.90;;;;;;5085818;28;20071;-52
2024/01/04 17:46:39;;;;;;;10.63;5.20;;;6.20;99.90;;;;;;5085401;28;20058;-52
2024/01/04 17:49:05;;;;;;;15.13;6.13;;;6.10;99.90;;;;;;5085468;28;20024;-53
2024/01/04 17:51:32;;;;;;;19.58;7.88;;;6.10;99.90;;;;;;5097459;28;20079;-56
2024/01/04 17:53:57;;;;;;;22.33;8.33;;;6.00;99.90;;;;;;5082122;28;20028;-52
2024/01/04 17:56:23;;;;;;;18.00;7.57;;;6.00;99.90;;;;;;5084307;28;20081;-53
2024/01/04 17:58:49;;;;;;;13.75;6.47;;;5.90;99.90;;;;;;5090740;28;20051;-53
2024/01/04 18:01:16;;;;;;;14.48;6.10;;;5.90;99.90;;;;;;5088893;28;20174;-53
2024/01/04 18:03:43;;;;;;;11.73;4.50;;;5.80;99.90;;;;;;5098686;27;20107;-52
2024/01/04 18:06:08;;;;;;;12.90;5.30;;;5.70;99.90;;;;;;5098474;28;20723;-52
2024/01/04 18:08:34;;;;;;;9.82;4.00;;;5.70;99.90;;;;;;5103496;28;20063;-52
2024/01/04 18:11:00;;;;;;;6.20;3.13;;;5.60;21.50;;;;;;5103870;28;20506;-52
2024/01/04 18:13:31;;;;;;;6.93;3.30;;;5.50;1.00;;;;;;5103355;28;20024;-52
2024/01/04 18:15:57;;;;;;;6.60;3.15;;;5.50;1.00;;;;;;5103792;28;20035;-51
2024/01/04 18:18:22;;;;;;;5.53;2.83;;;5.50;1.00;;;;;;5104569;28;20020;-51
2024/01/04 18:20:48;;;;;;;6.22;2.83;;;5.40;1.00;;;;;;5104510;28;20451;-52
2024/01/04 18:23:14;;;;;;;5.65;2.17;;;5.40;1.00;;;;;;5103460;28;20514;-51
2024/01/04 18:25:40;;;;;;;5.68;2.63;;;5.30;99.90;;;;;;5103828;28;20102;-51
2024/01/04 18:28:05;;;;;;;5.88;2.90;;;5.30;99.90;;;;;;5104669;28;20402;-52
2024/01/04 18:30:32;;;;;;;8.38;3.03;;;5.30;99.90;;;;;;5105301;28;20103;-52
2024/01/04 18:32:58;;;;;;;8.05;3.72;;;5.30;99.90;;;;;;5087295;28;20104;-50
2024/01/04 18:35:23;;;;;;;7.88;3.72;;;5.20;99.90;;;;;;5105023;28;20031;-52
2024/01/04 18:37:49;;;;;;;8.43;3.88;;;5.20;99.90;;;;;;5104989;28;20023;-53
2024/01/04 18:40:15;;;;;;;8.82;3.67;;;5.20;99.90;;;;;;5105224;28;20039;-52
2024/01/04 18:42:41;;;;;;;8.70;3.43;;;5.10;99.90;;;;;;5103936;28;20447;-55
2024/01/04 18:45:07;;;;;;;7.38;3.28;;;5.10;99.90;;;;;;5105064;28;20301;-53
2024/01/04 18:47:32;;;;;;;10.68;4.07;;;5.10;99.90;;;;;;5104782;28;20138;-52
2024/01/04 18:49:58;;;;;;;8.52;3.78;;;5.00;99.90;;;;;;5105174;28;20028;-53
2024/01/04 18:52:24;;;;;;;8.45;3.65;;;5.00;99.90;;;;;;5104688;28;20039;-52
2024/01/04 18:54:49;;;;;;;7.82;3.50;;;4.90;99.90;;;;;;5105362;28;20102;-53
2024/01/04 18:57:15;;;;;;;9.25;2.80;;;4.90;99.90;;;;;;5104779;28;20051;-53
2024/01/04 18:59:42;;;;;;;9.52;3.17;;;4.90;99.90;;;;;;5104196;28;20581;-52
2024/01/04 19:02:08;;;;;;;5.45;2.10;;;4.90;99.90;;;;;;5104434;28;20131;-53
2024/01/04 19:04:34;;;;;;;6.32;2.67;;;4.80;99.90;;;;;;5104440;28;20034;-53
2024/01/04 19:06:59;;;;;;;4.57;2.45;;;4.80;99.90;;;;;;5085741;28;20036;-53
2024/01/04 19:09:26;;;;;;;8.05;3.40;;;4.90;99.90;;;;;;5104297;28;20036;-52
2024/01/04 19:11:52;;;;;;;6.90;3.05;;;4.90;99.90;;;;;;5104463;28;20814;-54
2024/01/04 19:14:18;;;;;;;5.63;1.98;;;4.90;99.90;;;;;;5104394;28;20089;-53
2024/01/04 19:16:44;;;;;;;6.00;1.95;;;4.90;99.90;;;;;;5104348;28;20051;-54
2024/01/04 19:19:11;;;;;;;5.28;2.25;;;4.90;99.90;;;;;;5104698;28;20828;-52
2024/01/04 19:21:36;;;;;;;5.93;2.28;;;4.80;99.90;;;;;;5104157;28;20032;-51
2024/01/04 19:24:02;;;;;;;6.50;2.60;;;4.90;99.90;;;;;;5104297;28;20055;-52
2024/01/04 19:26:27;;;;;;;7.60;2.55;;;4.90;99.90;;;;;;5104231;28;20118;-52
2024/01/04 19:28:53;;;;;;;5.97;2.58;;;4.90;99.90;;;;;;5104169;28;20016;-53
2024/01/04 19:31:20;;;;;;;8.77;3.63;;;4.90;99.90;;;;;;5104081;28;20359;-52
2024/01/04 19:33:46;;;;;;;9.80;4.07;;;4.90;99.90;;;;;;5104541;28;20697;-52
2024/01/04 19:36:12;;;;;;;10.52;5.63;;;4.90;99.90;;;;;;5085669;28;20063;-53
2024/01/04 19:38:37;;;;;;;12.20;5.45;;;4.90;1.00;;;;;;5104024;28;20104;-53
2024/01/04 19:41:03;;;;;;;10.43;4.60;;;4.80;99.90;;;;;;5104002;28;20148;-55
2024/01/04 19:43:29;;;;;;;11.00;4.95;;;4.80;99.90;;;;;;5102118;28;20096;-52
2024/01/04 19:45:54;;;;;;;10.90;4.32;;;4.80;1.00;;;;;;5104127;28;20031;-53
2024/01/04 19:48:20;;;;;;;8.20;3.03;;;4.70;99.90;;;;;;5104140;28;20023;-54
2024/01/04 19:50:46;;;;;;;7.40;3.33;;;4.70;99.90;;;;;;5104213;28;20036;-52
2024/01/04 19:53:11;;;;;;;7.43;3.30;;;4.70;99.90;;;;;;5085462;28;20621;-55
2024/01/04 19:55:37;;;;;;;14.07;4.63;;;4.70;99.90;;;;;;5103941;28;20114;-53
2024/01/04 19:58:03;;;;;;;12.85;4.43;;;4.70;99.90;;;;;;5104315;28;20387;-54
2024/01/04 20:00:29;;;;;;;7.88;3.70;;;4.70;99.90;;;;;;5103946;28;20536;-55
2024/01/04 20:02:54;;;;;;;7.05;2.45;;;4.60;99.90;;;;;;5103952;28;20035;-54
2024/01/04 20:05:20;;;;;;;11.68;3.35;;;4.60;99.90;;;;;;5103778;28;20028;-55
2024/01/04 20:07:46;;;;;;;6.57;2.77;;;4.50;99.90;;;;;;5104236;28;20055;-53
2024/01/04 20:10:12;;;;;;;10.23;3.65;;;4.50;99.90;;;;;;5103852;28;21481;-53
2024/01/04 20:12:38;;;;;;;8.30;3.08;;;4.50;99.90;;;;;;5103729;28;20735;-53
2024/01/04 20:15:04;;;;;;;6.35;2.38;;;4.50;99.90;;;;;;5089492;28;20020;-54
2024/01/04 20:17:30;;;;;;;9.00;3.00;;;4.40;99.90;;;;;;5083721;28;20064;-55
2024/01/04 20:19:56;;;;;;;8.30;3.40;;;4.40;99.90;;;;;;5086986;28;20147;-54
2024/01/04 20:22:22;;;;;;;11.73;4.75;;;4.40;99.90;;;;;;5089818;28;20032;-55
2024/01/04 20:24:49;;;;;;;14.37;5.20;;;4.40;99.90;;;;;;5107293;28;20500;-54
2024/01/04 20:27:15;;;;;;;11.60;4.72;;;4.40;99.90;;;;;;5107376;28;20027;-55
2024/01/04 20:29:40;;;;;;;8.52;4.32;;;4.30;99.90;;;;;;5107076;28;20046;-54
2024/01/04 20:32:06;;;;;;;7.65;3.75;;;4.30;99.90;;;;;;5107187;28;20130;-54
2024/01/04 20:34:32;;;;;;;11.40;4.32;;;4.30;99.90;;;;;;5106882;28;20102;-55
2024/01/04 20:36:58;;;;;;;9.85;4.32;;;4.20;99.90;;;;;;5107282;28;20023;-55
2024/01/04 20:39:24;;;;;;;11.63;5.22;;;4.20;99.90;;;;;;5106869;28;20095;-56
2024/01/04 20:41:50;;;;;;;14.45;5.38;;;4.10;99.90;;;;;;5104738;28;20034;-54
2024/01/04 20:44:16;;;;;;;12.75;5.20;;;4.10;99.90;;;;;;5106909;28;20023;-53
2024/01/04 20:46:42;;;;;;;13.43;5.80;;;4.10;99.90;;;;;;5107228;28;20473;-54
2024/01/04 20:49:08;;;;;;;13.68;5.40;;;4.00;99.90;;;;;;5107431;28;20165;-54
2024/01/04 20:51:34;;;;;;;15.13;6.45;;;4.00;99.90;;;;;;5107134;28;20153;-55
2024/01/04 20:54:00;;;;;;;11.95;4.90;;;3.90;99.90;;;;;;5106779;28;20024;-55
2024/01/04 20:56:26;;;;;;;10.05;4.40;;;3.90;99.90;;;;;;5107208;28;20042;-55
2024/01/04 20:58:52;;;;;;;10.73;4.45;;;3.80;99.90;;;;;;5106819;28;20039;-54
2024/01/04 21:01:17;;;;;;;11.85;4.70;;;3.80;99.90;;;;;;5106611;28;20023;-56
2024/01/04 21:03:43;;;;;;;8.68;3.40;;;3.80;99.90;;;;;;5106471;28;20084;-54
2024/01/04 21:06:09;;;;;;;9.30;3.13;;;3.70;99.90;;;;;;5106507;28;20051;-55
2024/01/04 21:08:35;;;;;;;7.15;3.00;;;3.70;99.90;;;;;;5106708;28;20023;-53
2024/01/04 21:11:01;;;;;;;7.80;3.15;;;3.60;99.90;;;;;;5106773;28;20035;-53
2024/01/04 21:13:27;;;;;;;8.32;3.45;;;3.60;99.90;;;;;;5106709;28;20034;-53
2024/01/04 21:15:52;;;;;;;9.00;3.97;;;3.60;99.90;;;;;;5106676;28;20038;-53
2024/01/04 21:18:18;;;;;;;9.93;3.85;;;3.60;99.90;;;;;;5106729;28;20027;-54
